Time;durP1;ratioP1;P1;durP2;ratioP2;P2;SDS_P1;SDS_P2;PMS_P1;PMS_P2;Temp;Humidity;BMP_temperature;BMP_pressure;BME280_temperature;BME280_humidity;BME280_pressure;Samples;Min_cycle;Max_cycle;Signal;HPM_P1;HPM_P2
2022/03/18 00:00:21;;;;;;;14.98;9.93;;;;;;;-8.16;100.00;103196.19;1788961;80;22009;-87
2022/03/18 00:02:49;;;;;;;15.90;9.33;;;;;;;-8.20;100.00;103199.36;1784469;79;21094;-86
2022/03/18 00:05:17;;;;;;;16.12;10.00;;;;;;;-8.24;100.00;103200.89;1791259;80;21059;-87
2022/03/18 00:07:45;;;;;;;18.62;9.80;;;;;;;-8.27;100.00;103205.83;1791207;80;21054;-87
2022/03/18 00:10:16;;;;;;;17.00;9.60;;;;;;;-8.29;100.00;103194.36;1790972;80;21065;-88
2022/03/18 00:12:44;;;;;;;16.48;9.63;;;;;;;-8.32;100.00;103203.48;1765293;80;21368;-88
2022/03/18 00:15:13;;;;;;;14.28;9.55;;;;;;;-8.34;100.00;103202.56;1765085;80;21591;-89
2022/03/18 00:17:42;;;;;;;17.07;10.40;;;;;;;-8.35;100.00;103206.73;1791393;80;21141;-89
2022/03/18 00:20:13;;;;;;;18.48;10.28;;;;;;;-8.37;100.00;103205.80;1760137;80;21581;-90
2022/03/18 00:22:43;;;;;;;16.40;9.50;;;;;;;-8.37;100.00;103204.94;1765174;80;21559;-90
2022/03/18 00:25:12;;;;;;;17.15;9.93;;;;;;;-8.38;100.00;103205.36;1791202;80;22511;-88
2022/03/18 00:27:42;;;;;;;18.15;9.28;;;;;;;-8.41;100.00;103206.05;1791290;80;21516;-88
2022/03/18 00:30:13;;;;;;;16.55;8.90;;;;;;;-8.40;100.00;103211.99;1791144;80;21533;-88
2022/03/18 00:32:42;;;;;;;18.62;9.60;;;;;;;-8.42;100.00;103214.84;1791387;80;20984;-87
2022/03/18 00:35:11;;;;;;;16.62;9.65;;;;;;;-8.43;100.00;103210.20;1791256;80;20987;-88
2022/03/18 00:37:39;;;;;;;20.15;10.28;;;;;;;-8.43;100.00;103213.98;1791271;80;21131;-88
2022/03/18 00:40:09;;;;;;;17.48;9.93;;;;;;;-8.44;100.00;103207.58;1791110;80;21062;-87
2022/03/18 00:42:37;;;;;;;14.63;9.00;;;;;;;-8.45;100.00;103205.87;1791314;80;21023;-88
2022/03/18 00:45:06;;;;;;;15.90;9.20;;;;;;;-8.47;100.00;103204.97;1791274;80;21504;-88
2022/03/18 00:53:11;;;;;;;15.08;9.35;;;;;;;-8.44;100.00;103213.89;1758861;81;21886;-88
2022/03/18 00:55:39;;;;;;;18.48;9.10;;;;;;;-8.45;100.00;103221.04;1757381;81;21110;-89
2022/03/18 00:58:07;;;;;;;16.57;9.30;;;;;;;-8.45;100.00;103223.16;1766117;79;21068;-90
2022/03/18 01:00:35;;;;;;;17.48;10.32;;;;;;;-8.45;100.00;103224.42;1788404;79;21075;-86
2022/03/18 01:03:06;;;;;;;18.12;10.63;;;;;;;-8.41;100.00;103231.33;1788351;79;22013;-89
2022/03/18 01:05:35;;;;;;;15.85;9.23;;;;;;;-8.42;100.00;103222.05;1788353;80;21077;-89
2022/03/18 01:08:02;;;;;;;17.05;10.95;;;;;;;-8.45;100.00;103218.52;1788452;79;21076;-88
2022/03/18 01:10:33;;;;;;;18.48;9.68;;;;;;;-8.48;100.00;103216.72;1788081;79;20998;-90
2022/03/18 01:13:04;;;;;;;17.42;10.05;;;;;;;-8.48;100.00;103220.92;1757541;80;21120;-89
2022/03/18 01:15:31;;;;;;;18.07;10.30;;;;;;;-8.52;100.00;103222.82;1803582;79;21967;-89
2022/03/18 01:17:59;;;;;;;19.32;10.32;;;;;;;-8.51;100.00;103227.09;1788423;80;21001;-89
2022/03/18 01:20:27;;;;;;;17.45;9.83;;;;;;;-8.55;100.00;103222.29;1788516;79;21002;-88
2022/03/18 01:22:54;;;;;;;18.10;8.60;;;;;;;-8.57;100.00;103220.08;1788591;79;21006;-90
2022/03/18 01:25:22;;;;;;;15.55;9.00;;;;;;;-8.60;100.00;103225.87;1788482;79;20999;-87
2022/03/18 01:27:50;;;;;;;18.98;10.75;;;;;;;-8.63;100.00;103221.06;1785885;80;21228;-87
2022/03/18 01:30:18;;;;;;;15.53;9.75;;;;;;;-8.63;100.00;103219.80;1788401;79;21020;-86
2022/03/18 01:32:47;;;;;;;14.05;8.73;;;;;;;-8.66;100.00;103221.80;1788442;80;20993;-86
2022/03/18 01:35:14;;;;;;;15.83;10.13;;;;;;;-8.69;100.00;103217.85;1788391;79;20963;-86
2022/03/18 01:37:41;;;;;;;16.23;9.30;;;;;;;-8.72;100.00;103220.26;1788840;79;21147;-87
2022/03/18 01:40:11;;;;;;;15.88;10.23;;;;;;;-8.74;100.00;103226.89;1788521;80;21186;-88
2022/03/18 01:42:38;;;;;;;15.38;9.18;;;;;;;-8.76;100.00;103225.94;1791012;79;21060;-87
2022/03/18 01:45:08;;;;;;;17.75;9.60;;;;;;;-8.79;100.00;103224.55;1788538;80;21080;-87
2022/03/18 01:47:36;;;;;;;17.02;9.70;;;;;;;-8.81;100.00;103226.98;1784139;79;21147;-87
2022/03/18 01:50:05;;;;;;;20.30;10.08;;;;;;;-8.83;100.00;103227.72;1788634;80;21139;-87
2022/03/18 01:52:33;;;;;;;19.07;9.58;;;;;;;-8.84;100.00;103231.03;1788781;80;21909;-87
2022/03/18 01:55:01;;;;;;;16.70;10.20;;;;;;;-8.85;100.00;103227.66;1788568;79;21061;-86
2022/03/18 01:57:29;;;;;;;18.55;9.78;;;;;;;-8.85;100.00;103231.44;1803823;79;21581;-89
2022/03/18 01:59:57;;;;;;;16.75;9.85;;;;;;;-8.86;100.00;103232.64;1788427;79;21010;-89
2022/03/18 02:02:26;;;;;;;16.23;8.73;;;;;;;-8.86;100.00;103240.22;1788428;79;21010;-88
2022/03/18 02:04:57;;;;;;;15.53;8.40;;;;;;;-8.84;100.00;103244.92;1760080;80;21633;-87
2022/03/18 02:07:24;;;;;;;;;;;;;;;-8.79;100.00;103246.03;1791079;79;21045;-87
2022/03/18 02:09:53;;;;;;;15.88;9.28;;;;;;;-8.77;100.00;103241.92;1788337;80;20129;-86
2022/03/18 02:12:22;;;;;;;14.40;8.00;;;;;;;-8.78;100.00;103245.23;1788460;79;21140;-88
2022/03/18 02:14:51;;;;;;;15.15;8.95;;;;;;;-8.84;100.00;103245.80;1788492;79;21629;-88
2022/03/18 02:17:20;;;;;;;15.08;8.08;;;;;;;-8.88;100.00;103243.53;1788477;79;21093;-88
2022/03/18 02:19:49;;;;;;;15.88;9.33;;;;;;;-8.88;100.00;103248.58;1785587;79;21041;-87
2022/03/18 02:22:21;;;;;;;17.90;9.23;;;;;;;-8.88;100.00;103251.11;1788720;80;21057;-87
2022/03/18 02:24:53;;;;;;;19.70;10.10;;;;;;;-8.90;100.00;103246.78;1784845;79;21093;-89
2022/03/18 02:27:21;;;;;;;18.73;8.98;;;;;;;-8.93;100.00;103248.73;1790230;79;21017;-87
2022/03/18 02:29:49;;;;;;;19.40;9.58;;;;;;;-8.93;100.00;103247.89;1788338;79;21364;-88
2022/03/18 02:32:18;;;;;;;17.15;10.13;;;;;;;-8.97;100.00;103249.41;1788126;80;20989;-87
2022/03/18 02:34:46;;;;;;;20.60;10.55;;;;;;;-8.98;100.00;103261.97;1785698;79;21462;-88
2022/03/18 02:37:13;;;;;;;20.40;11.00;;;;;;;-8.97;100.00;103263.70;1788298;80;21100;-88
2022/03/18 02:39:41;;;;;;;20.08;10.35;;;;;;;-8.97;100.00;103263.70;1803724;79;21049;-88
2022/03/18 02:42:10;;;;;;;18.35;10.30;;;;;;;-9.00;100.00;103270.70;1788375;79;21337;-87
2022/03/18 02:44:37;;;;;;;20.27;10.32;;;;;;;-9.04;100.00;103268.84;1788333;79;21554;-88
2022/03/18 02:47:06;;;;;;;19.75;10.82;;;;;;;-9.06;100.00;103272.94;1760151;80;21005;-88
2022/03/18 02:49:34;;;;;;;18.35;9.05;;;;;;;-9.10;100.00;103273.19;1788229;79;21064;-87
2022/03/18 02:52:02;;;;;;;22.13;10.80;;;;;;;-9.09;100.00;103276.19;1788388;79;21546;-87
2022/03/18 02:54:32;;;;;;;16.30;9.40;;;;;;;-9.09;100.00;103274.92;1788500;79;21958;-86
2022/03/18 02:57:00;;;;;;;18.05;10.13;;;;;;;-9.11;100.00;103277.76;1790571;79;21597;-88
2022/03/18 02:59:27;;;;;;;19.20;9.80;;;;;;;-9.14;100.00;103279.27;1788150;79;21738;-88
2022/03/18 03:01:55;;;;;;;18.55;10.00;;;;;;;-9.17;100.00;103280.40;1788849;79;21026;-88
2022/03/18 03:04:23;;;;;;;18.20;9.70;;;;;;;-9.18;100.00;103288.77;1788529;79;21041;-87
2022/03/18 03:09:39;;;;;;;17.75;9.83;;;;;;;-9.22;100.00;103283.95;1788142;79;21084;-88
2022/03/18 03:12:09;;;;;;;16.37;9.45;;;;;;;-9.25;100.00;103293.48;1788508;80;21456;-86
2022/03/18 03:14:37;;;;;;;17.73;9.80;;;;;;;-9.25;100.00;103292.62;1788401;79;21068;-86
2022/03/18 03:17:05;;;;;;;16.02;9.43;;;;;;;-9.26;100.00;103298.46;1788645;79;21025;-88
2022/03/18 03:19:34;;;;;;;16.97;9.13;;;;;;;-9.28;100.00;103305.96;1788346;80;21784;-87
2022/03/18 03:22:03;;;;;;;19.13;9.50;;;;;;;-9.25;100.00;103307.77;1788626;79;21022;-86
2022/03/18 03:24:30;;;;;;;18.70;10.23;;;;;;;-9.25;100.00;103303.98;1788480;79;21838;-88
2022/03/18 03:26:58;;;;;;;20.77;9.98;;;;;;;-9.26;100.00;103319.53;1788546;80;21076;-89
2022/03/18 03:29:25;;;;;;;17.82;10.48;;;;;;;-9.25;100.00;103312.82;1788448;79;20998;-89
2022/03/18 03:31:53;;;;;;;17.85;9.78;;;;;;;-9.26;100.00;103311.97;1788756;79;21772;-87
2022/03/18 03:34:20;;;;;;;19.82;9.85;;;;;;;-9.23;100.00;103312.51;1803566;78;21045;-88
2022/03/18 03:36:47;;;;;;;20.85;10.00;;;;;;;-9.25;100.00;103306.09;1788428;79;21076;-86
2022/03/18 03:39:16;;;;;;;17.10;9.45;;;;;;;-9.30;100.00;103318.89;1777194;79;21104;-86
2022/03/18 03:41:43;;;;;;;14.80;9.25;;;;;;;-9.35;100.00;103308.56;1788289;79;21589;-86
2022/03/18 03:44:12;;;;;;;18.80;9.58;;;;;;;-9.37;100.00;103319.38;1788513;79;22440;-88
2022/03/18 03:46:40;;;;;;;19.62;10.10;;;;;;;-9.40;100.00;103321.73;1788704;79;21492;-88
2022/03/18 03:49:09;;;;;;;15.08;9.38;;;;;;;-9.44;100.00;103316.92;1788495;79;21013;-89
2022/03/18 03:51:36;;;;;;;17.00;9.28;;;;;;;-9.46;100.00;103326.09;1778998;79;21009;-88
2022/03/18 03:54:09;;;;;;;17.12;9.40;;;;;;;-9.47;100.00;103332.30;1787758;80;20998;-90
2022/03/18 03:56:36;;;;;;;19.07;9.43;;;;;;;-9.47;100.00;103325.99;1779907;78;22051;-87
2022/03/18 03:59:05;;;;;;;15.60;9.25;;;;;;;-9.46;100.00;103338.71;1791106;80;21006;-87
2022/03/18 04:01:32;;;;;;;17.32;10.03;;;;;;;-9.43;100.00;103344.30;1791514;80;21049;-86
2022/03/18 04:04:04;;;;;;;21.90;10.10;;;;;;;-9.41;100.00;103344.85;1780259;80;21637;-87
2022/03/18 04:06:32;;;;;;;19.25;10.68;;;;;;;-9.38;100.00;103355.12;1781366;80;21070;-88
2022/03/18 04:09:00;;;;;;;21.70;9.90;;;;;;;-9.35;100.00;103355.25;1759752;81;21843;-88
2022/03/18 04:11:29;;;;;;;21.57;11.50;;;;;;;-9.32;100.00;103357.06;1766922;80;21006;-87
2022/03/18 04:13:58;;;;;;;21.97;11.08;;;;;;;-9.26;100.00;103367.88;1791478;80;21018;-88
2022/03/18 04:16:26;;;;;;;19.20;10.30;;;;;;;-9.25;100.00;103367.09;1791726;80;21060;-89
2022/03/18 04:18:55;;;;;;;23.30;11.63;;;;;;;-9.21;100.00;103368.59;1791155;80;21002;-89
2022/03/18 04:21:23;;;;;;;19.70;10.30;;;;;;;-9.16;100.00;103374.25;1767170;80;22499;-88
2022/03/18 04:23:54;;;;;;;19.42;10.40;;;;;;;-9.14;100.00;103377.36;1789685;80;21598;-88
2022/03/18 04:26:21;;;;;;;18.85;9.45;;;;;;;-9.13;100.00;103384.52;1786182;80;21077;-87
2022/03/18 04:28:50;;;;;;;16.52;9.50;;;;;;;-9.12;100.00;103382.47;1724171;83;21011;-87
2022/03/18 04:31:17;;;;;;;16.90;10.53;;;;;;;-9.09;100.00;103383.91;1710984;82;21064;-86
2022/03/18 04:33:44;;;;;;;21.77;11.22;;;;;;;-9.05;100.00;103389.56;1785969;80;21375;-87
2022/03/18 04:36:12;;;;;;;23.07;10.80;;;;;;;-9.06;100.00;103392.50;1786177;80;21022;-87
2022/03/18 04:38:39;;;;;;;18.60;10.10;;;;;;;-9.05;100.00;103394.20;1786297;80;21103;-86
2022/03/18 04:41:08;;;;;;;22.07;11.85;;;;;;;-9.00;100.00;103396.11;1785115;80;21656;-87
2022/03/18 04:43:36;;;;;;;17.73;10.03;;;;;;;-8.97;100.00;103396.28;1786120;80;21136;-87
2022/03/18 04:46:03;;;;;;;20.20;10.63;;;;;;;-8.95;100.00;103390.52;1789845;80;21843;-87
2022/03/18 04:48:31;;;;;;;18.20;10.50;;;;;;;-8.93;100.00;103395.22;1784821;80;21026;-87
2022/03/18 04:51:04;;;;;;;18.45;10.65;;;;;;;-8.91;100.00;103398.70;1785870;80;21025;-88
2022/03/18 04:53:28;;;;;;;19.77;11.08;;;;;;;-8.89;100.00;103400.92;1760940;80;21063;-87
2022/03/18 04:55:57;;;;;;;16.62;9.48;;;;;;;-8.87;100.00;103406.03;1732617;82;21641;-87
2022/03/18 04:58:24;;;;;;;20.20;10.63;;;;;;;-8.85;100.00;103403.61;1724906;82;21258;-87
2022/03/18 05:00:52;;;;;;;15.75;9.68;;;;;;;-8.82;100.00;103403.75;1699220;83;22009;-88
2022/03/18 05:03:19;;;;;;;18.02;9.60;;;;;;;-8.73;100.00;103413.05;1724530;83;21014;-88
2022/03/18 05:05:47;;;;;;;19.32;10.23;;;;;;;-8.68;100.00;103418.34;1724008;83;21829;-89
2022/03/18 05:08:14;;;;;;;23.60;10.65;;;;;;;-8.65;100.00;103413.04;1735668;80;21100;-90
2022/03/18 05:10:42;;;;;;;26.52;12.63;;;;;;;-8.58;100.00;103418.01;1762028;80;21334;-90
2022/03/18 05:13:10;;;;;;;20.92;11.65;;;;;;;-8.49;100.00;103418.84;1730313;81;20988;-88
2022/03/18 05:15:38;;;;;;;17.95;10.10;;;;;;;-8.40;100.00;103429.38;1741263;81;21037;-87
2022/03/18 05:18:06;;;;;;;19.20;10.50;;;;;;;-8.32;100.00;103428.47;1762701;80;21053;-90
2022/03/18 05:20:34;;;;;;;18.40;10.48;;;;;;;-8.24;100.00;103428.06;1761942;80;21042;-87
2022/03/18 05:23:02;;;;;;;21.15;11.20;;;;;;;-8.18;100.00;103430.41;1761043;80;21239;-88
2022/03/18 05:25:31;;;;;;;17.92;10.13;;;;;;;-8.14;100.00;103432.30;1754309;78;21057;-87
2022/03/18 05:28:02;;;;;;;20.62;11.65;;;;;;;-8.10;100.00;103438.84;1758828;80;21020;-89
2022/03/18 05:30:31;;;;;;;17.32;10.58;;;;;;;-8.06;100.00;103442.39;1759637;80;21029;-89
2022/03/18 05:33:00;;;;;;;16.80;9.85;;;;;;;-8.04;100.00;103445.83;1757597;80;21061;-87
2022/03/18 05:35:29;;;;;;;27.73;11.78;;;;;;;-7.95;100.00;103447.54;1749982;80;21874;-87
2022/03/18 05:37:58;;;;;;;15.43;9.40;;;;;;;-7.88;100.00;103452.50;1742499;80;21726;-88
2022/03/18 05:40:27;;;;;;;18.95;9.60;;;;;;;-7.81;100.00;103449.46;1731764;81;21518;-88
2022/03/18 05:42:56;;;;;;;16.87;9.13;;;;;;;-7.74;100.00;103446.83;1761506;80;21062;-88
2022/03/18 05:45:23;;;;;;;17.17;9.40;;;;;;;-7.68;100.00;103448.38;1751141;80;21051;-89
2022/03/18 05:47:51;;;;;;;20.65;10.55;;;;;;;-7.60;100.00;103448.70;1761524;80;21575;-87
2022/03/18 05:50:18;;;;;;;19.17;9.15;;;;;;;-7.55;100.00;103452.72;1749789;80;21072;-86
2022/03/18 05:52:46;;;;;;;14.65;8.60;;;;;;;-7.50;100.00;103457.20;1734786;81;21631;-88
2022/03/18 05:55:14;;;;;;;18.20;10.30;;;;;;;-7.44;100.00;103468.02;1760083;80;21101;-87
2022/03/18 05:57:43;;;;;;;16.07;9.78;;;;;;;-7.38;100.00;103461.95;1763748;80;21101;-87
2022/03/18 06:00:14;;;;;;;;;;;;;;;-7.31;100.00;103461.42;1771832;81;21158;-90
2022/03/18 06:02:45;;;;;;;23.77;10.53;;;;;;;-7.28;100.00;103463.23;1763317;81;20454;-87
2022/03/18 06:05:16;;;;;;;18.23;9.73;;;;;;;-7.28;100.00;103470.82;1765632;80;20957;-87
2022/03/18 06:07:44;;;;;;;18.20;10.18;;;;;;;-7.29;100.00;103468.70;1736826;81;21077;-90
2022/03/18 06:13:03;;;;;;;18.90;11.38;;;;;;;-7.30;100.00;103474.56;1765120;80;21051;-89
2022/03/18 06:15:34;;;;;;;;;;;;;;;-7.24;100.00;103479.42;1767949;80;21491;-84
2022/03/18 06:18:03;;;;;;;19.80;10.23;;;;;;;-7.21;100.00;103484.23;1765355;80;20181;-88
2022/03/18 06:20:32;;;;;;;19.87;10.68;;;;;;;-7.21;100.00;103484.23;1751157;80;21092;-86
2022/03/18 06:23:04;;;;;;;22.42;10.55;;;;;;;-7.27;100.00;103489.02;1755186;80;21116;-86
2022/03/18 06:25:32;;;;;;;20.65;10.95;;;;;;;-7.29;100.00;103492.76;1762107;80;22095;-88
2022/03/18 06:28:02;;;;;;;18.27;10.05;;;;;;;-7.24;100.00;103499.30;1763202;81;21083;-85
2022/03/18 06:30:30;;;;;;;18.45;10.75;;;;;;;-7.19;100.00;103492.77;1759299;81;21065;-88
2022/03/18 06:32:58;;;;;;;15.85;10.30;;;;;;;-7.10;100.00;103496.12;1758390;80;21105;-87
2022/03/18 06:35:25;;;;;;;26.50;14.73;;;;;;;-7.02;100.00;103494.81;1756119;80;21120;-83
2022/03/18 06:37:52;;;;;;;21.35;10.90;;;;;;;-6.90;100.00;103499.92;1759003;81;21418;-88
2022/03/18 06:40:19;;;;;;;16.05;9.70;;;;;;;-6.78;100.00;103500.48;1747918;81;21395;-84
2022/03/18 06:42:46;;;;;;;17.15;9.80;;;;;;;-6.69;100.00;103500.85;1748486;82;21070;-90
2022/03/18 06:45:13;;;;;;;17.35;9.20;;;;;;;-6.59;100.00;103493.64;1764999;81;21108;-87
2022/03/18 06:47:41;;;;;;;18.20;9.85;;;;;;;-6.55;100.00;103502.72;1764456;81;21072;-87
2022/03/18 06:50:10;;;;;;;17.17;9.78;;;;;;;-6.50;100.00;103495.31;1736859;81;21200;-89
2022/03/18 06:52:37;;;;;;;18.05;9.80;;;;;;;-6.41;100.00;103494.43;1763872;80;21487;-90
2022/03/18 06:55:07;;;;;;;14.35;9.05;;;;;;;-6.36;100.00;103489.14;1764160;81;21135;-88
2022/03/18 06:57:34;;;;;;;16.30;10.13;;;;;;;-6.28;100.00;103489.47;1764073;80;21060;-88
2022/03/18 07:00:01;;;;;;;15.95;9.25;;;;;;;-6.19;100.00;103486.43;1763711;80;21108;-89
2022/03/18 07:02:29;;;;;;;23.20;10.30;;;;;;;-6.02;100.00;103484.17;1763860;81;21589;-90
2022/03/18 07:04:56;;;;;;;17.07;9.08;;;;;;;-5.68;100.00;103484.59;1763893;80;21049;-82
2022/03/18 07:07:23;;;;;;;17.20;10.05;;;;;;;-5.25;100.00;103478.61;1764280;80;21617;-85
2022/03/18 07:09:50;;;;;;;17.45;9.63;;;;;;;-5.14;100.00;103479.00;1764385;80;21497;-86
2022/03/18 07:12:18;;;;;;;15.32;10.23;;;;;;;-5.14;100.00;103491.70;1764395;80;21549;-86
2022/03/18 07:14:46;;;;;;;15.23;10.15;;;;;;;-5.20;100.00;103490.59;1764372;81;21417;-85
2022/03/18 07:20:04;;;;;;;15.38;9.23;;;;;;;-5.25;100.00;103502.75;1764314;80;21041;-80
2022/03/18 07:22:32;;;;;;;16.40;9.35;;;;;;;-5.31;100.00;103497.83;1780805;80;21046;-81
2022/03/18 07:24:59;;;;;;;14.68;9.60;;;;;;;-5.26;100.00;103500.16;1741424;81;21089;-80
2022/03/18 07:27:26;;;;;;;15.35;8.68;;;;;;;-5.15;100.00;103498.86;1769158;81;21284;-81
2022/03/18 07:29:54;;;;;;;14.87;8.70;;;;;;;-4.98;100.00;103502.03;1768978;81;21117;-84
2022/03/18 07:32:21;;;;;;;16.55;10.25;;;;;;;-4.84;100.00;103492.34;1787781;79;21017;-84
2022/03/18 07:34:48;;;;;;;15.23;8.23;;;;;;;-4.69;100.00;103500.07;1757998;81;21002;-83
2022/03/18 07:37:17;;;;;;;14.55;7.95;;;;;;;-4.59;100.00;103494.47;1753010;80;21080;-88
2022/03/18 07:39:45;;;;;;;20.75;8.40;;;;;;;-4.55;100.00;103493.77;1746338;81;21419;-86
2022/03/18 07:42:13;;;;;;;13.85;7.85;;;;;;;-4.54;100.00;103496.78;1750448;80;21110;-86
2022/03/18 07:44:40;;;;;;;14.13;8.40;;;;;;;-4.58;100.00;103497.47;1746328;81;21982;-87
2022/03/18 07:47:08;;;;;;;15.30;7.85;;;;;;;-4.61;100.00;103502.05;1742338;80;21014;-86
2022/03/18 07:49:38;;;;;;;11.15;7.50;;;;;;;-4.65;100.00;103505.70;1747536;81;21025;-86
2022/03/18 07:52:05;;;;;;;14.18;8.00;;;;;;;-4.68;100.00;103510.67;1759381;80;21214;-85
2022/03/18 07:54:34;;;;;;;12.18;8.10;;;;;;;-4.70;100.00;103501.73;1767446;80;21585;-85
2022/03/18 07:57:02;;;;;;;14.28;8.30;;;;;;;-4.72;100.00;103498.67;1744776;80;21074;-85
2022/03/18 07:59:29;;;;;;;13.85;8.18;;;;;;;-4.74;100.00;103502.45;1743049;81;21566;-86
2022/03/18 08:01:58;;;;;;;12.93;7.70;;;;;;;-4.70;100.00;103509.78;1750161;80;21036;-86
2022/03/18 08:04:27;;;;;;;16.90;10.10;;;;;;;-4.65;100.00;103506.98;1737849;81;21029;-86
2022/03/18 08:06:54;;;;;;;13.75;8.18;;;;;;;-4.63;100.00;103507.91;1758302;80;21048;-85
2022/03/18 08:09:29;;;;;;;12.40;8.00;;;;;;;-4.55;100.00;103507.77;1718441;81;21042;-85
2022/03/18 08:12:00;;;;;;;16.73;8.73;;;;;;;-4.41;100.00;103504.81;1738716;81;21061;-89
2022/03/18 08:14:29;;;;;;;12.30;7.80;;;;;;;-4.36;100.00;103508.37;1755579;81;21576;-84
2022/03/18 08:16:57;;;;;;;13.55;8.15;;;;;;;-4.32;100.00;103501.31;1757720;81;21031;-85
2022/03/18 08:19:25;;;;;;;10.55;6.37;;;;;;;-4.28;100.00;103503.12;1736322;81;21903;-85
2022/03/18 08:21:53;;;;;;;14.30;7.90;;;;;;;-4.24;100.00;103501.16;1756639;80;21072;-85
2022/03/18 08:24:21;;;;;;;11.95;7.90;;;;;;;-4.09;100.00;103499.92;1759731;80;21464;-85
2022/03/18 08:26:48;;;;;;;12.43;7.58;;;;;;;-3.98;100.00;103497.33;1754021;80;21003;-84
2022/03/18 08:29:16;;;;;;;15.32;8.45;;;;;;;-4.01;100.00;103512.49;1754581;80;21266;-88
2022/03/18 08:31:44;;;;;;;11.08;7.12;;;;;;;-4.09;100.00;103506.29;1729295;81;21032;-86
2022/03/18 08:34:11;;;;;;;14.93;7.30;;;;;;;-4.09;100.00;103502.08;1719216;81;21062;-87
2022/03/18 08:36:38;;;;;;;9.30;6.22;;;;;;;-4.08;100.00;103497.42;1759106;80;21331;-86
2022/03/18 08:39:05;;;;;;;10.38;6.83;;;;;;;-4.07;100.00;103508.48;1760451;81;21104;-89
2022/03/18 08:41:33;;;;;;;11.18;6.83;;;;;;;-4.03;100.00;103506.48;1752318;80;21156;-87
2022/03/18 08:44:01;;;;;;;11.48;7.17;;;;;;;-3.90;100.00;103503.92;1784597;78;21057;-88
2022/03/18 08:46:28;;;;;;;11.10;6.92;;;;;;;-3.73;100.00;103507.87;1754583;81;21046;-88
2022/03/18 08:48:55;;;;;;;11.97;7.08;;;;;;;-3.62;100.00;103508.62;1741020;81;21053;-88
2022/03/18 08:51:22;;;;;;;10.75;6.78;;;;;;;-3.60;100.00;103505.30;1786813;79;21539;-88
2022/03/18 08:53:51;;;;;;;10.10;6.53;;;;;;;-3.56;100.00;103503.70;1727431;80;21178;-87
2022/03/18 08:56:18;;;;;;;9.85;6.30;;;;;;;-3.51;100.00;103505.97;1794874;79;21025;-88
2022/03/18 08:58:45;;;;;;;11.73;7.00;;;;;;;-3.49;100.00;103501.80;1764682;79;21042;-88
2022/03/18 09:01:13;;;;;;;11.60;7.70;;;;;;;-3.47;100.00;103495.46;1797995;79;20991;-88
2022/03/18 09:03:40;;;;;;;10.32;6.37;;;;;;;-3.42;100.00;103501.58;1785139;79;21077;-88
2022/03/18 09:06:09;;;;;;;12.00;7.00;;;;;;;-3.36;100.00;103504.30;1799001;79;21944;-88
2022/03/18 09:08:39;;;;;;;12.18;7.15;;;;;;;-3.35;100.00;103504.76;1784809;78;21093;-88
2022/03/18 09:11:07;;;;;;;21.17;12.88;;;;;;;-3.45;100.00;103509.12;1793424;79;21982;-94
2022/03/18 09:13:36;;;;;;;15.40;9.55;;;;;;;-3.55;100.00;103510.11;1789574;79;21591;-91
2022/03/18 09:16:04;;;;;;;13.50;7.83;;;;;;;-3.57;100.00;103510.50;1786132;79;21108;-88
2022/03/18 09:18:32;;;;;;;11.33;7.12;;;;;;;-3.55;100.00;103506.29;1792382;78;21142;-89
2022/03/18 09:21:02;;;;;;;9.85;6.65;;;;;;;-3.46;100.00;103507.39;1747760;79;21580;-89
2022/03/18 09:23:30;;;;;;;10.53;6.55;;;;;;;-3.33;100.00;103501.86;1788864;79;21007;-86
2022/03/18 09:25:57;;;;;;;10.35;7.60;;;;;;;-3.14;100.00;103494.72;1795405;79;21015;-88
2022/03/18 09:28:25;;;;;;;10.53;6.25;;;;;;;-2.92;100.00;103494.48;1784040;79;21548;-87
2022/03/18 09:30:54;;;;;;;9.18;5.85;;;;;;;-2.71;100.00;103497.19;1789367;78;21227;-87
2022/03/18 09:33:35;;;;;;;10.18;7.15;;;;;;;-2.64;100.00;103505.45;1786141;79;21014;-89
2022/03/18 09:36:04;;;;;;;10.05;6.42;;;;;;;-2.61;100.00;103493.19;1769715;80;21050;-88
2022/03/18 09:38:32;;;;;;;10.78;6.42;;;;;;;-2.44;100.00;103494.88;1743038;80;21331;-85
2022/03/18 09:40:59;;;;;;;9.88;4.80;;;;;;;-2.18;100.00;103495.56;1750677;80;22210;-88
2022/03/18 09:43:37;;;;;;;9.00;5.80;;;;;;;-1.87;100.00;103491.18;1757263;80;21197;-86
2022/03/18 09:46:09;;;;;;;8.25;5.30;;;;;;;-1.63;98.82;103497.25;1756236;81;21330;-86
2022/03/18 09:48:37;;;;;;;8.55;5.67;;;;;;;-1.45;93.81;103498.09;1757925;80;21578;-87
2022/03/18 09:51:07;;;;;;;10.08;5.60;;;;;;;-1.49;86.97;103487.77;1758104;81;21037;-84
2022/03/18 10:07:13;;;;;;;9.68;6.15;;;;;;;-1.33;85.43;103496.20;1804961;78;22644;-86
2022/03/18 10:09:41;;;;;;;8.88;5.62;;;;;;;-1.26;83.48;103490.78;1739365;82;20978;-84
2022/03/18 10:12:33;;;;;;;12.30;6.00;;;;;;;-1.16;79.13;103495.70;1740628;81;22080;-85
2022/03/18 10:15:22;;;;;;;7.25;5.05;;;;;;;-1.11;78.55;103491.52;1751340;81;22060;-85
2022/03/18 10:17:52;;;;;;;9.03;6.15;;;;;;;-0.99;78.04;103483.23;1749390;80;21108;-84
2022/03/18 10:20:37;;;;;;;17.85;7.90;;;;;;;-0.96;77.31;103493.09;1779211;80;21101;-84
2022/03/18 10:23:22;;;;;;;13.80;6.95;;;;;;;-1.07;75.74;103497.13;1714926;82;21073;-86
2022/03/18 10:25:56;;;;;;;12.45;8.08;;;;;;;-1.40;77.77;103498.16;1751169;80;22185;-85
2022/03/18 10:28:43;;;;;;;9.38;6.47;;;;;;;-1.71;80.18;103494.94;1736345;81;21048;-85
2022/03/18 10:31:21;;;;;;;11.30;7.12;;;;;;;-1.85;83.39;103493.76;1750239;80;21053;-84
2022/03/18 10:39:30;;;;;;;12.95;7.03;;;;;;;-1.76;80.00;103501.22;1730190;81;21713;-86
2022/03/18 10:42:02;;;;;;;8.20;5.20;;;;;;;-1.77;81.97;103497.36;1721277;81;21117;-84
2022/03/18 10:45:03;;;;;;;10.20;5.80;;;;;;;-1.78;81.39;103495.62;1754767;80;21073;-86
2022/03/18 10:47:37;;;;;;;6.15;4.87;;;;;;;-1.84;80.25;103501.45;1718615;82;21057;-86
2022/03/18 10:50:19;;;;;;;9.20;5.10;;;;;;;-1.86;81.22;103500.97;1777800;80;21065;-85
2022/03/18 10:53:01;;;;;;;8.00;5.45;;;;;;;-1.87;81.33;103497.96;1751922;79;21415;-84
2022/03/18 10:55:37;;;;;;;8.33;5.62;;;;;;;-1.93;82.15;103489.77;1737868;81;21877;-86
2022/03/18 10:58:16;;;;;;;8.43;6.28;;;;;;;-1.96;84.30;103494.36;1747146;80;21046;-85
2022/03/18 11:00:50;;;;;;;8.70;6.03;;;;;;;-2.03;85.17;103492.49;1739418;81;21054;-85
2022/03/18 11:03:18;;;;;;;7.80;6.20;;;;;;;-2.13;85.62;103485.46;1747662;80;21124;-85
2022/03/18 11:05:50;;;;;;;8.13;6.12;;;;;;;-2.16;88.18;103485.38;1739202;80;21416;-85
2022/03/18 11:08:22;;;;;;;11.68;6.17;;;;;;;-2.15;89.81;103485.83;1772032;80;21061;-85
2022/03/18 11:11:14;;;;;;;9.48;6.78;;;;;;;-2.03;93.67;103487.39;1760667;80;21142;-84
2022/03/18 11:14:03;;;;;;;8.13;5.35;;;;;;;-1.87;91.85;103501.80;1749536;80;21613;-91
2022/03/18 11:16:38;;;;;;;9.35;6.25;;;;;;;-1.77;86.93;103485.86;1737858;81;21069;-91
2022/03/18 11:19:14;;;;;;;10.18;6.40;;;;;;;-1.62;100.00;103496.42;1724732;81;21172;-85
2022/03/18 11:21:49;;;;;;;8.35;5.78;;;;;;;-1.54;89.53;103484.22;1752710;80;21098;-83
2022/03/18 11:24:30;;;;;;;8.65;6.28;;;;;;;-1.58;82.94;103488.41;1661477;82;21059;-84
2022/03/18 11:26:58;;;;;;;8.95;6.37;;;;;;;-1.57;83.31;103480.34;1740002;82;21050;-85
2022/03/18 11:29:26;;;;;;;26.30;7.47;;;;;;;-1.49;81.32;103486.05;1747707;80;21542;-84
2022/03/18 11:32:17;;;;;;;10.48;6.03;;;;;;;-1.45;81.86;103492.09;1743158;81;21298;-85
2022/03/18 11:34:50;;;;;;;9.93;6.22;;;;;;;-1.44;78.95;103487.44;1787543;78;21038;-83
2022/03/18 11:37:20;;;;;;;7.55;5.80;;;;;;;-1.44;77.23;103483.17;1794920;79;21030;-86
2022/03/18 11:39:48;;;;;;;9.05;6.37;;;;;;;-1.40;78.64;103485.38;1796520;79;21614;-88
2022/03/18 11:42:21;;;;;;;9.28;6.60;;;;;;;-1.23;78.50;103480.63;1792816;78;21010;-83
2022/03/18 11:44:56;;;;;;;9.48;6.65;;;;;;;-1.10;78.34;103483.02;1786914;79;21256;-84
2022/03/18 11:47:31;;;;;;;10.53;7.78;;;;;;;-1.04;75.39;103475.89;1783094;79;21567;-83
2022/03/18 11:50:00;;;;;;;10.05;6.97;;;;;;;-1.06;74.13;103467.31;1782261;80;20991;-84
2022/03/18 11:52:28;;;;;;;10.48;6.25;;;;;;;-1.10;75.92;103475.34;1782632;78;21055;-85